DAON

Zenata – Messali El Hadj Airport

Tlemcen, Algeria
METAR DAON 131030Z 20014KT 9999 SCT026 SCT100 16/09 Q1016
Observed Flight Rules
Dec-13 @ 10:30 UTC (21 minutes ago) Visual Flight Rules
Wind Visibility Clouds
200° at 14 knots 10,000+ meters
  • Scattered at 2,600' AGL
  • Scattered at 10,000' AGL
Temperatures Readings
Current 16°C / 61°F
Dewpoint 9°C / 48°F
Humidity 63%
Altimeter 30" Hg
Pressure 1016 hPa
Elevation 247
METAR DAON 131030Z 20014KT 9999 SCT026 SCT100 16/09 Q1016
Observed Flight Rules
Dec-13 @ 10:30 UTC
(21 minutes ago)
VFR
Wind Visibility
200° at 14 knots 10,000+ meters
Clouds
  • Scattered at 2,600' AGL
  • Scattered at 10,000' AGL
Temperature Dewpoint
16°C / 61°F 9°C / 48°F
Humidity Altimeter Pressure
63% 30" Hg 1016 hPa